sensor_id;sensor_type;location;lat;lon;timestamp;P1;durP1;ratioP1;P2;durP2;ratioP2
18738;SDS011;9498;51.862;19.460;2023-03-14T00:00:36;8.43;;;3.60;;
18738;SDS011;9498;51.862;19.460;2023-03-14T00:03:04;11.37;;;4.07;;
18738;SDS011;9498;51.862;19.460;2023-03-14T00:05:33;10.23;;;4.20;;
18738;SDS011;9498;51.862;19.460;2023-03-14T00:08:00;8.17;;;3.60;;
18738;SDS011;9498;51.862;19.460;2023-03-14T00:10:27;10.63;;;4.37;;
18738;SDS011;9498;51.862;19.460;2023-03-14T00:12:54;9.50;;;4.10;;
18738;SDS011;9498;51.862;19.460;2023-03-14T00:15:22;9.87;;;3.80;;
18738;SDS011;9498;51.862;19.460;2023-03-14T00:17:49;7.40;;;3.53;;
18738;SDS011;9498;51.862;19.460;2023-03-14T00:20:16;12.30;;;3.40;;
18738;SDS011;9498;51.862;19.460;2023-03-14T00:22:45;7.67;;;4.10;;
18738;SDS011;9498;51.862;19.460;2023-03-14T00:25:12;10.80;;;4.03;;
18738;SDS011;9498;51.862;19.460;2023-03-14T00:27:39;10.50;;;3.90;;
18738;SDS011;9498;51.862;19.460;2023-03-14T00:30:07;8.50;;;4.00;;
18738;SDS011;9498;51.862;19.460;2023-03-14T00:32:34;10.53;;;3.73;;
18738;SDS011;9498;51.862;19.460;2023-03-14T00:35:01;14.67;;;3.87;;
18738;SDS011;9498;51.862;19.460;2023-03-14T00:37:29;11.07;;;3.73;;
18738;SDS011;9498;51.862;19.460;2023-03-14T00:39:57;8.57;;;3.43;;
18738;SDS011;9498;51.862;19.460;2023-03-14T00:42:25;5.83;;;3.40;;
18738;SDS011;9498;51.862;19.460;2023-03-14T00:44:52;10.33;;;3.90;;
18738;SDS011;9498;51.862;19.460;2023-03-14T00:47:19;9.13;;;3.90;;
18738;SDS011;9498;51.862;19.460;2023-03-14T00:49:46;10.93;;;3.75;;
18738;SDS011;9498;51.862;19.460;2023-03-14T00:52:14;9.43;;;3.47;;
18738;SDS011;9498;51.862;19.460;2023-03-14T00:54:41;7.90;;;3.30;;
18738;SDS011;9498;51.862;19.460;2023-03-14T00:57:09;10.10;;;3.70;;
18738;SDS011;9498;51.862;19.460;2023-03-14T00:59:37;7.33;;;3.57;;
18738;SDS011;9498;51.862;19.460;2023-03-14T01:02:04;10.33;;;4.27;;
18738;SDS011;9498;51.862;19.460;2023-03-14T01:04:31;8.47;;;3.30;;
18738;SDS011;9498;51.862;19.460;2023-03-14T01:06:59;7.00;;;3.67;;
18738;SDS011;9498;51.862;19.460;2023-03-14T01:09:26;9.10;;;3.23;;
18738;SDS011;9498;51.862;19.460;2023-03-14T01:11:54;9.30;;;3.83;;
18738;SDS011;9498;51.862;19.460;2023-03-14T01:14:22;9.63;;;3.50;;
18738;SDS011;9498;51.862;19.460;2023-03-14T01:16:49;11.57;;;4.00;;
18738;SDS011;9498;51.862;19.460;2023-03-14T01:19:17;10.93;;;3.73;;
18738;SDS011;9498;51.862;19.460;2023-03-14T01:21:44;11.70;;;4.00;;
18738;SDS011;9498;51.862;19.460;2023-03-14T01:24:11;8.47;;;3.53;;
18738;SDS011;9498;51.862;19.460;2023-03-14T01:26:38;8.23;;;3.27;;
18738;SDS011;9498;51.862;19.460;2023-03-14T01:29:05;12.57;;;3.47;;
18738;SDS011;9498;51.862;19.460;2023-03-14T01:31:34;9.80;;;3.67;;
18738;SDS011;9498;51.862;19.460;2023-03-14T01:34:01;6.47;;;3.50;;
18738;SDS011;9498;51.862;19.460;2023-03-14T01:36:28;9.03;;;3.33;;
18738;SDS011;9498;51.862;19.460;2023-03-14T01:38:55;11.10;;;3.73;;
18738;SDS011;9498;51.862;19.460;2023-03-14T01:41:24;7.07;;;3.10;;
18738;SDS011;9498;51.862;19.460;2023-03-14T01:43:51;9.30;;;3.47;;
18738;SDS011;9498;51.862;19.460;2023-03-14T01:46:20;9.83;;;3.53;;
18738;SDS011;9498;51.862;19.460;2023-03-14T01:48:50;14.93;;;3.17;;
18738;SDS011;9498;51.862;19.460;2023-03-14T01:51:20;6.47;;;3.20;;
18738;SDS011;9498;51.862;19.460;2023-03-14T01:53:48;7.60;;;3.13;;
18738;SDS011;9498;51.862;19.460;2023-03-14T01:56:16;8.37;;;3.47;;
18738;SDS011;9498;51.862;19.460;2023-03-14T01:58:45;7.37;;;3.07;;
18738;SDS011;9498;51.862;19.460;2023-03-14T02:01:14;11.32;;;3.60;;
18738;SDS011;9498;51.862;19.460;2023-03-14T02:03:44;7.23;;;3.43;;
18738;SDS011;9498;51.862;19.460;2023-03-14T02:06:15;9.90;;;3.77;;
18738;SDS011;9498;51.862;19.460;2023-03-14T02:08:44;7.87;;;3.40;;
18738;SDS011;9498;51.862;19.460;2023-03-14T02:11:13;8.37;;;3.23;;
18738;SDS011;9498;51.862;19.460;2023-03-14T02:13:40;11.93;;;3.50;;
18738;SDS011;9498;51.862;19.460;2023-03-14T02:16:08;9.47;;;3.47;;
18738;SDS011;9498;51.862;19.460;2023-03-14T02:18:35;8.13;;;3.40;;
18738;SDS011;9498;51.862;19.460;2023-03-14T02:21:04;6.77;;;3.27;;
18738;SDS011;9498;51.862;19.460;2023-03-14T02:23:35;10.20;;;3.97;;
18738;SDS011;9498;51.862;19.460;2023-03-14T02:26:06;8.97;;;3.87;;
18738;SDS011;9498;51.862;19.460;2023-03-14T02:28:37;8.47;;;3.33;;
18738;SDS011;9498;51.862;19.460;2023-03-14T02:31:04;8.27;;;3.83;;
18738;SDS011;9498;51.862;19.460;2023-03-14T02:33:33;7.70;;;3.17;;
18738;SDS011;9498;51.862;19.460;2023-03-14T02:36:02;10.80;;;3.90;;
18738;SDS011;9498;51.862;19.460;2023-03-14T02:38:31;9.47;;;3.63;;
18738;SDS011;9498;51.862;19.460;2023-03-14T02:41:00;11.50;;;4.05;;
18738;SDS011;9498;51.862;19.460;2023-03-14T02:43:27;8.60;;;3.60;;
18738;SDS011;9498;51.862;19.460;2023-03-14T02:45:56;7.27;;;3.70;;
18738;SDS011;9498;51.862;19.460;2023-03-14T02:48:24;8.67;;;3.80;;
18738;SDS011;9498;51.862;19.460;2023-03-14T02:50:53;9.50;;;4.13;;
18738;SDS011;9498;51.862;19.460;2023-03-14T02:53:21;8.03;;;3.67;;
18738;SDS011;9498;51.862;19.460;2023-03-14T02:55:50;12.03;;;4.47;;
18738;SDS011;9498;51.862;19.460;2023-03-14T02:58:18;8.70;;;3.60;;
18738;SDS011;9498;51.862;19.460;2023-03-14T03:00:45;8.37;;;4.13;;
18738;SDS011;9498;51.862;19.460;2023-03-14T03:03:14;12.43;;;4.20;;
18738;SDS011;9498;51.862;19.460;2023-03-14T03:05:41;12.17;;;3.67;;
18738;SDS011;9498;51.862;19.460;2023-03-14T03:08:08;9.57;;;4.20;;
18738;SDS011;9498;51.862;19.460;2023-03-14T03:10:36;13.10;;;4.43;;
18738;SDS011;9498;51.862;19.460;2023-03-14T03:13:03;12.90;;;4.07;;
18738;SDS011;9498;51.862;19.460;2023-03-14T03:15:30;10.82;;;4.85;;
18738;SDS011;9498;51.862;19.460;2023-03-14T03:17:57;11.63;;;4.80;;
18738;SDS011;9498;51.862;19.460;2023-03-14T03:20:26;9.80;;;4.70;;
18738;SDS011;9498;51.862;19.460;2023-03-14T03:22:53;11.47;;;4.93;;
18738;SDS011;9498;51.862;19.460;2023-03-14T03:25:20;9.63;;;4.83;;
18738;SDS011;9498;51.862;19.460;2023-03-14T03:27:48;15.00;;;5.43;;
18738;SDS011;9498;51.862;19.460;2023-03-14T03:30:15;15.17;;;5.73;;
18738;SDS011;9498;51.862;19.460;2023-03-14T03:32:42;15.60;;;6.50;;
18738;SDS011;9498;51.862;19.460;2023-03-14T03:35:10;17.27;;;6.60;;
18738;SDS011;9498;51.862;19.460;2023-03-14T03:37:39;17.80;;;7.13;;
18738;SDS011;9498;51.862;19.460;2023-03-14T03:40:06;16.53;;;6.97;;
18738;SDS011;9498;51.862;19.460;2023-03-14T03:42:34;15.97;;;6.93;;
18738;SDS011;9498;51.862;19.460;2023-03-14T03:45:01;18.23;;;6.80;;
18738;SDS011;9498;51.862;19.460;2023-03-14T03:47:29;15.60;;;6.47;;
18738;SDS011;9498;51.862;19.460;2023-03-14T03:49:56;19.75;;;7.30;;
18738;SDS011;9498;51.862;19.460;2023-03-14T03:52:24;15.00;;;6.67;;
18738;SDS011;9498;51.862;19.460;2023-03-14T03:54:52;17.23;;;6.10;;
18738;SDS011;9498;51.862;19.460;2023-03-14T03:57:19;17.00;;;6.13;;
18738;SDS011;9498;51.862;19.460;2023-03-14T03:59:47;13.50;;;6.03;;
18738;SDS011;9498;51.862;19.460;2023-03-14T04:02:14;15.27;;;5.97;;
18738;SDS011;9498;51.862;19.460;2023-03-14T04:04:41;14.17;;;6.07;;
18738;SDS011;9498;51.862;19.460;2023-03-14T04:07:08;11.10;;;5.50;;
18738;SDS011;9498;51.862;19.460;2023-03-14T04:09:38;16.20;;;5.83;;
18738;SDS011;9498;51.862;19.460;2023-03-14T04:12:07;13.80;;;6.07;;
18738;SDS011;9498;51.862;19.460;2023-03-14T04:14:36;15.93;;;5.80;;
18738;SDS011;9498;51.862;19.460;2023-03-14T04:17:03;16.37;;;6.40;;
18738;SDS011;9498;51.862;19.460;2023-03-14T04:19:30;15.43;;;6.53;;
18738;SDS011;9498;51.862;19.460;2023-03-14T04:21:57;18.17;;;6.47;;
18738;SDS011;9498;51.862;19.460;2023-03-14T04:24:24;14.53;;;6.30;;
18738;SDS011;9498;51.862;19.460;2023-03-14T04:26:51;18.87;;;6.90;;
18738;SDS011;9498;51.862;19.460;2023-03-14T04:29:20;15.90;;;6.60;;
18738;SDS011;9498;51.862;19.460;2023-03-14T04:31:47;22.23;;;6.47;;
18738;SDS011;9498;51.862;19.460;2023-03-14T04:34:14;20.43;;;7.33;;
18738;SDS011;9498;51.862;19.460;2023-03-14T04:36:42;19.30;;;6.73;;
18738;SDS011;9498;51.862;19.460;2023-03-14T04:39:09;23.50;;;8.17;;
18738;SDS011;9498;51.862;19.460;2023-03-14T04:41:36;23.37;;;6.93;;
18738;SDS011;9498;51.862;19.460;2023-03-14T04:44:03;17.37;;;6.90;;
18738;SDS011;9498;51.862;19.460;2023-03-14T04:46:32;16.17;;;7.30;;
18738;SDS011;9498;51.862;19.460;2023-03-14T04:48:59;23.87;;;8.50;;
18738;SDS011;9498;51.862;19.460;2023-03-14T04:51:26;19.53;;;7.83;;
18738;SDS011;9498;51.862;19.460;2023-03-14T04:53:53;23.57;;;7.10;;
18738;SDS011;9498;51.862;19.460;2023-03-14T04:56:21;17.10;;;7.17;;
18738;SDS011;9498;51.862;19.460;2023-03-14T04:58:48;18.48;;;8.30;;
18738;SDS011;9498;51.862;19.460;2023-03-14T05:01:15;21.27;;;6.90;;
18738;SDS011;9498;51.862;19.460;2023-03-14T05:03:44;17.80;;;7.33;;
18738;SDS011;9498;51.862;19.460;2023-03-14T05:06:11;24.03;;;6.73;;
18738;SDS011;9498;51.862;19.460;2023-03-14T05:08:38;12.63;;;5.87;;
18738;SDS011;9498;51.862;19.460;2023-03-14T05:11:05;21.40;;;9.30;;
18738;SDS011;9498;51.862;19.460;2023-03-14T05:13:33;19.50;;;8.13;;
18738;SDS011;9498;51.862;19.460;2023-03-14T05:16:03;16.23;;;5.87;;
18738;SDS011;9498;51.862;19.460;2023-03-14T05:18:31;16.37;;;6.37;;
18738;SDS011;9498;51.862;19.460;2023-03-14T05:20:59;19.47;;;6.93;;
18738;SDS011;9498;51.862;19.460;2023-03-14T05:23:27;25.33;;;8.50;;
18738;SDS011;9498;51.862;19.460;2023-03-14T05:25:54;13.47;;;6.00;;
18738;SDS011;9498;51.862;19.460;2023-03-14T05:28:21;16.40;;;6.20;;
18738;SDS011;9498;51.862;19.460;2023-03-14T05:30:48;19.42;;;6.68;;
18738;SDS011;9498;51.862;19.460;2023-03-14T05:33:16;18.03;;;6.07;;
18738;SDS011;9498;51.862;19.460;2023-03-14T05:35:43;14.93;;;6.33;;
18738;SDS011;9498;51.862;19.460;2023-03-14T05:38:11;13.10;;;5.63;;
18738;SDS011;9498;51.862;19.460;2023-03-14T05:40:39;13.23;;;5.23;;
18738;SDS011;9498;51.862;19.460;2023-03-14T05:43:06;14.30;;;5.77;;
18738;SDS011;9498;51.862;19.460;2023-03-14T05:45:33;16.53;;;5.93;;
18738;SDS011;9498;51.862;19.460;2023-03-14T05:48:01;12.50;;;5.17;;
18738;SDS011;9498;51.862;19.460;2023-03-14T05:50:28;14.50;;;6.97;;
18738;SDS011;9498;51.862;19.460;2023-03-14T05:52:55;16.87;;;5.70;;
18738;SDS011;9498;51.862;19.460;2023-03-14T05:55:24;11.20;;;5.33;;
18738;SDS011;9498;51.862;19.460;2023-03-14T05:57:52;14.50;;;5.93;;
18738;SDS011;9498;51.862;19.460;2023-03-14T06:00:19;13.80;;;5.73;;
18738;SDS011;9498;51.862;19.460;2023-03-14T06:02:47;17.33;;;6.00;;
18738;SDS011;9498;51.862;19.460;2023-03-14T06:05:14;17.10;;;7.07;;
18738;SDS011;9498;51.862;19.460;2023-03-14T06:07:41;12.50;;;5.80;;
18738;SDS011;9498;51.862;19.460;2023-03-14T06:10:09;13.67;;;6.40;;
18738;SDS011;9498;51.862;19.460;2023-03-14T06:12:37;19.47;;;5.77;;
18738;SDS011;9498;51.862;19.460;2023-03-14T06:15:05;16.53;;;6.30;;
18738;SDS011;9498;51.862;19.460;2023-03-14T06:17:32;14.80;;;5.27;;
18738;SDS011;9498;51.862;19.460;2023-03-14T06:20:00;14.37;;;4.97;;
18738;SDS011;9498;51.862;19.460;2023-03-14T06:22:27;14.30;;;5.20;;
18738;SDS011;9498;51.862;19.460;2023-03-14T06:24:55;11.80;;;5.33;;
18738;SDS011;9498;51.862;19.460;2023-03-14T06:27:22;13.87;;;5.13;;
18738;SDS011;9498;51.862;19.460;2023-03-14T06:29:51;13.30;;;5.10;;
18738;SDS011;9498;51.862;19.460;2023-03-14T06:32:18;12.17;;;4.93;;
18738;SDS011;9498;51.862;19.460;2023-03-14T06:34:46;13.67;;;5.57;;
18738;SDS011;9498;51.862;19.460;2023-03-14T06:37:13;13.60;;;5.40;;
18738;SDS011;9498;51.862;19.460;2023-03-14T06:39:41;20.77;;;5.60;;
18738;SDS011;9498;51.862;19.460;2023-03-14T06:42:09;12.67;;;4.80;;
18738;SDS011;9498;51.862;19.460;2023-03-14T06:44:36;9.57;;;5.03;;
18738;SDS011;9498;51.862;19.460;2023-03-14T06:47:05;14.67;;;4.80;;
18738;SDS011;9498;51.862;19.460;2023-03-14T06:49:32;9.00;;;4.53;;
18738;SDS011;9498;51.862;19.460;2023-03-14T06:51:59;10.93;;;4.70;;
18738;SDS011;9498;51.862;19.460;2023-03-14T06:54:26;12.97;;;4.80;;
18738;SDS011;9498;51.862;19.460;2023-03-14T06:56:54;10.10;;;4.20;;
18738;SDS011;9498;51.862;19.460;2023-03-14T06:59:21;10.83;;;4.90;;
18738;SDS011;9498;51.862;19.460;2023-03-14T07:01:48;12.07;;;3.90;;
18738;SDS011;9498;51.862;19.460;2023-03-14T07:04:17;13.07;;;4.10;;
18738;SDS011;9498;51.862;19.460;2023-03-14T07:06:44;14.43;;;4.10;;
18738;SDS011;9498;51.862;19.460;2023-03-14T07:09:12;10.20;;;3.70;;
18738;SDS011;9498;51.862;19.460;2023-03-14T07:11:39;7.97;;;3.60;;
18738;SDS011;9498;51.862;19.460;2023-03-14T07:14:07;12.77;;;4.07;;
18738;SDS011;9498;51.862;19.460;2023-03-14T07:16:34;11.60;;;4.10;;
18738;SDS011;9498;51.862;19.460;2023-03-14T07:19:01;8.43;;;3.97;;
18738;SDS011;9498;51.862;19.460;2023-03-14T07:21:30;14.67;;;3.50;;
18738;SDS011;9498;51.862;19.460;2023-03-14T07:23:59;12.03;;;4.00;;
18738;SDS011;9498;51.862;19.460;2023-03-14T07:26:26;6.90;;;3.67;;
18738;SDS011;9498;51.862;19.460;2023-03-14T07:28:54;14.30;;;3.50;;
18738;SDS011;9498;51.862;19.460;2023-03-14T07:31:21;12.83;;;3.60;;
18738;SDS011;9498;51.862;19.460;2023-03-14T07:33:48;7.17;;;3.47;;
18738;SDS011;9498;51.862;19.460;2023-03-14T07:36:16;8.50;;;3.80;;
18738;SDS011;9498;51.862;19.460;2023-03-14T07:38:44;9.67;;;3.60;;
18738;SDS011;9498;51.862;19.460;2023-03-14T07:41:11;9.90;;;3.87;;
18738;SDS011;9498;51.862;19.460;2023-03-14T07:43:39;9.90;;;4.07;;
18738;SDS011;9498;51.862;19.460;2023-03-14T07:46:06;11.93;;;4.30;;
18738;SDS011;9498;51.862;19.460;2023-03-14T07:48:33;9.23;;;3.70;;
18738;SDS011;9498;51.862;19.460;2023-03-14T07:51:01;11.67;;;4.00;;
18738;SDS011;9498;51.862;19.460;2023-03-14T07:53:28;10.07;;;4.20;;
18738;SDS011;9498;51.862;19.460;2023-03-14T07:55:56;9.30;;;3.87;;
18738;SDS011;9498;51.862;19.460;2023-03-14T07:58:24;9.17;;;4.37;;
18738;SDS011;9498;51.862;19.460;2023-03-14T08:00:51;9.07;;;3.83;;
18738;SDS011;9498;51.862;19.460;2023-03-14T08:03:18;15.97;;;4.57;;
18738;SDS011;9498;51.862;19.460;2023-03-14T08:05:46;10.45;;;4.60;;
18738;SDS011;9498;51.862;19.460;2023-03-14T08:08:14;10.43;;;4.63;;
18738;SDS011;9498;51.862;19.460;2023-03-14T08:10:41;8.33;;;3.73;;
18738;SDS011;9498;51.862;19.460;2023-03-14T08:13:10;12.07;;;3.93;;
18738;SDS011;9498;51.862;19.460;2023-03-14T08:15:37;7.93;;;3.80;;
18738;SDS011;9498;51.862;19.460;2023-03-14T08:18:05;11.40;;;4.03;;
18738;SDS011;9498;51.862;19.460;2023-03-14T08:20:32;10.73;;;4.60;;
18738;SDS011;9498;51.862;19.460;2023-03-14T08:23:00;19.23;;;5.13;;
18738;SDS011;9498;51.862;19.460;2023-03-14T08:25:28;15.50;;;4.43;;
18738;SDS011;9498;51.862;19.460;2023-03-14T08:27:55;7.93;;;4.50;;
18738;SDS011;9498;51.862;19.460;2023-03-14T08:30:24;10.10;;;4.07;;
18738;SDS011;9498;51.862;19.460;2023-03-14T08:32:51;8.93;;;3.90;;
18738;SDS011;9498;51.862;19.460;2023-03-14T08:35:19;13.43;;;5.00;;
18738;SDS011;9498;51.862;19.460;2023-03-14T08:37:46;9.43;;;3.83;;
18738;SDS011;9498;51.862;19.460;2023-03-14T08:40:13;9.13;;;3.93;;
18738;SDS011;9498;51.862;19.460;2023-03-14T08:42:42;9.53;;;4.63;;
18738;SDS011;9498;51.862;19.460;2023-03-14T08:45:10;13.10;;;4.43;;
18738;SDS011;9498;51.862;19.460;2023-03-14T08:47:39;9.80;;;4.20;;
18738;SDS011;9498;51.862;19.460;2023-03-14T08:50:06;10.63;;;4.00;;
18738;SDS011;9498;51.862;19.460;2023-03-14T08:52:34;14.43;;;4.37;;
18738;SDS011;9498;51.862;19.460;2023-03-14T08:55:02;11.53;;;4.40;;
18738;SDS011;9498;51.862;19.460;2023-03-14T08:57:30;11.27;;;4.50;;
18738;SDS011;9498;51.862;19.460;2023-03-14T08:59:57;13.67;;;4.40;;
18738;SDS011;9498;51.862;19.460;2023-03-14T09:02:25;12.20;;;4.03;;
18738;SDS011;9498;51.862;19.460;2023-03-14T09:04:53;10.30;;;4.30;;
18738;SDS011;9498;51.862;19.460;2023-03-14T09:07:21;10.63;;;4.57;;
18738;SDS011;9498;51.862;19.460;2023-03-14T09:09:48;10.63;;;4.53;;
18738;SDS011;9498;51.862;19.460;2023-03-14T09:12:15;10.40;;;4.73;;
18738;SDS011;9498;51.862;19.460;2023-03-14T09:14:42;13.90;;;4.03;;
18738;SDS011;9498;51.862;19.460;2023-03-14T09:17:09;11.93;;;4.50;;
18738;SDS011;9498;51.862;19.460;2023-03-14T09:19:37;12.63;;;4.37;;
18738;SDS011;9498;51.862;19.460;2023-03-14T09:22:05;8.07;;;3.80;;
18738;SDS011;9498;51.862;19.460;2023-03-14T09:24:32;12.17;;;3.93;;
18738;SDS011;9498;51.862;19.460;2023-03-14T09:27:00;11.17;;;4.87;;
18738;SDS011;9498;51.862;19.460;2023-03-14T09:29:28;10.25;;;4.20;;
18738;SDS011;9498;51.862;19.460;2023-03-14T09:31:55;14.13;;;4.40;;
18738;SDS011;9498;51.862;19.460;2023-03-14T09:34:22;10.10;;;4.10;;
18738;SDS011;9498;51.862;19.460;2023-03-14T09:36:49;13.13;;;3.97;;
18738;SDS011;9498;51.862;19.460;2023-03-14T09:39:18;8.40;;;3.90;;
18738;SDS011;9498;51.862;19.460;2023-03-14T09:41:46;7.33;;;3.53;;
18738;SDS011;9498;51.862;19.460;2023-03-14T09:44:14;8.63;;;4.00;;
18738;SDS011;9498;51.862;19.460;2023-03-14T09:46:43;11.73;;;3.93;;
18738;SDS011;9498;51.862;19.460;2023-03-14T09:49:13;13.80;;;3.97;;
18738;SDS011;9498;51.862;19.460;2023-03-14T09:51:42;10.50;;;3.63;;
18738;SDS011;9498;51.862;19.460;2023-03-14T09:54:14;6.37;;;3.30;;
18738;SDS011;9498;51.862;19.460;2023-03-14T09:56:46;8.63;;;3.90;;
18738;SDS011;9498;51.862;19.460;2023-03-14T09:59:13;6.53;;;3.50;;
18738;SDS011;9498;51.862;19.460;2023-03-14T10:01:40;8.23;;;3.83;;
18738;SDS011;9498;51.862;19.460;2023-03-14T10:04:10;13.60;;;3.80;;
18738;SDS011;9498;51.862;19.460;2023-03-14T10:06:38;13.67;;;4.03;;
18738;SDS011;9498;51.862;19.460;2023-03-14T10:09:05;15.63;;;3.97;;
18738;SDS011;9498;51.862;19.460;2023-03-14T10:11:32;12.80;;;3.83;;
18738;SDS011;9498;51.862;19.460;2023-03-14T10:14:05;11.87;;;4.30;;
18738;SDS011;9498;51.862;19.460;2023-03-14T10:16:33;8.17;;;3.53;;
18738;SDS011;9498;51.862;19.460;2023-03-14T10:19:02;14.03;;;3.90;;
18738;SDS011;9498;51.862;19.460;2023-03-14T10:21:29;7.67;;;3.80;;
18738;SDS011;9498;51.862;19.460;2023-03-14T10:24:07;8.23;;;3.80;;
18738;SDS011;9498;51.862;19.460;2023-03-14T10:26:34;8.07;;;3.53;;
18738;SDS011;9498;51.862;19.460;2023-03-14T10:29:02;7.23;;;3.63;;
18738;SDS011;9498;51.862;19.460;2023-03-14T10:31:36;6.90;;;3.40;;
18738;SDS011;9498;51.862;19.460;2023-03-14T10:34:15;6.10;;;3.57;;
18738;SDS011;9498;51.862;19.460;2023-03-14T10:36:43;10.13;;;4.43;;
18738;SDS011;9498;51.862;19.460;2023-03-14T10:39:22;9.27;;;4.50;;
18738;SDS011;9498;51.862;19.460;2023-03-14T10:41:51;7.20;;;3.40;;
18738;SDS011;9498;51.862;19.460;2023-03-14T10:44:20;11.63;;;4.27;;
18738;SDS011;9498;51.862;19.460;2023-03-14T10:46:55;8.80;;;4.20;;
18738;SDS011;9498;51.862;19.460;2023-03-14T10:49:25;8.93;;;3.97;;
18738;SDS011;9498;51.862;19.460;2023-03-14T10:51:53;8.27;;;3.77;;
18738;SDS011;9498;51.862;19.460;2023-03-14T10:54:22;9.93;;;3.47;;
18738;SDS011;9498;51.862;19.460;2023-03-14T10:56:56;8.73;;;3.60;;
18738;SDS011;9498;51.862;19.460;2023-03-14T10:59:24;9.40;;;4.30;;
18738;SDS011;9498;51.862;19.460;2023-03-14T11:01:53;9.20;;;4.13;;
18738;SDS011;9498;51.862;19.460;2023-03-14T11:07:09;8.97;;;4.07;;
18738;SDS011;9498;51.862;19.460;2023-03-14T11:09:39;8.43;;;3.67;;
18738;SDS011;9498;51.862;19.460;2023-03-14T11:12:13;12.20;;;4.50;;
18738;SDS011;9498;51.862;19.460;2023-03-14T11:14:48;10.80;;;4.23;;
18738;SDS011;9498;51.862;19.460;2023-03-14T11:17:19;17.10;;;4.20;;
18738;SDS011;9498;51.862;19.460;2023-03-14T11:19:53;9.65;;;4.47;;
18738;SDS011;9498;51.862;19.460;2023-03-14T11:22:28;8.37;;;4.13;;
18738;SDS011;9498;51.862;19.460;2023-03-14T11:27:48;13.83;;;4.83;;
18738;SDS011;9498;51.862;19.460;2023-03-14T11:30:19;12.53;;;4.80;;
18738;SDS011;9498;51.862;19.460;2023-03-14T11:32:50;10.87;;;4.70;;
18738;SDS011;9498;51.862;19.460;2023-03-14T11:35:22;9.93;;;5.07;;
18738;SDS011;9498;51.862;19.460;2023-03-14T11:37:54;12.83;;;5.10;;
18738;SDS011;9498;51.862;19.460;2023-03-14T11:40:23;12.53;;;5.07;;
18738;SDS011;9498;51.862;19.460;2023-03-14T11:42:53;9.67;;;5.47;;
18738;SDS011;9498;51.862;19.460;2023-03-14T11:45:22;13.20;;;5.10;;
18738;SDS011;9498;51.862;19.460;2023-03-14T11:47:53;12.67;;;5.43;;
18738;SDS011;9498;51.862;19.460;2023-03-14T11:50:23;13.17;;;5.53;;
18738;SDS011;9498;51.862;19.460;2023-03-14T11:52:52;13.50;;;5.63;;
18738;SDS011;9498;51.862;19.460;2023-03-14T11:55:22;11.50;;;5.33;;
18738;SDS011;9498;51.862;19.460;2023-03-14T11:57:51;15.47;;;5.73;;
18738;SDS011;9498;51.862;19.460;2023-03-14T12:00:20;11.63;;;5.20;;
18738;SDS011;9498;51.862;19.460;2023-03-14T12:02:49;11.50;;;5.30;;
18738;SDS011;9498;51.862;19.460;2023-03-14T12:10:47;13.00;;;5.63;;
18738;SDS011;9498;51.862;19.460;2023-03-14T12:13:16;13.43;;;5.37;;
18738;SDS011;9498;51.862;19.460;2023-03-14T12:15:46;9.00;;;5.30;;
18738;SDS011;9498;51.862;19.460;2023-03-14T12:18:17;12.87;;;5.87;;
18738;SDS011;9498;51.862;19.460;2023-03-14T12:20:50;17.30;;;6.43;;
18738;SDS011;9498;51.862;19.460;2023-03-14T12:23:18;12.17;;;6.10;;
18738;SDS011;9498;51.862;19.460;2023-03-14T12:25:46;14.07;;;6.40;;
18738;SDS011;9498;51.862;19.460;2023-03-14T12:28:16;13.23;;;6.57;;
18738;SDS011;9498;51.862;19.460;2023-03-14T12:30:44;15.07;;;6.80;;
18738;SDS011;9498;51.862;19.460;2023-03-14T12:36:04;12.30;;;6.37;;
18738;SDS011;9498;51.862;19.460;2023-03-14T12:38:37;17.47;;;7.07;;
18738;SDS011;9498;51.862;19.460;2023-03-14T12:41:10;16.03;;;7.03;;
18738;SDS011;9498;51.862;19.460;2023-03-14T12:43:40;14.70;;;7.10;;
18738;SDS011;9498;51.862;19.460;2023-03-14T12:46:09;12.93;;;6.07;;
18738;SDS011;9498;51.862;19.460;2023-03-14T12:48:42;12.53;;;6.67;;
18738;SDS011;9498;51.862;19.460;2023-03-14T12:51:12;12.53;;;5.97;;
18738;SDS011;9498;51.862;19.460;2023-03-14T12:53:45;12.73;;;6.63;;
18738;SDS011;9498;51.862;19.460;2023-03-14T12:56:25;12.40;;;6.57;;
18738;SDS011;9498;51.862;19.460;2023-03-14T13:01:45;17.60;;;7.17;;
18738;SDS011;9498;51.862;19.460;2023-03-14T13:04:13;17.07;;;6.87;;
18738;SDS011;9498;51.862;19.460;2023-03-14T13:06:48;17.97;;;7.30;;
18738;SDS011;9498;51.862;19.460;2023-03-14T13:09:34;17.10;;;7.00;;
18738;SDS011;9498;51.862;19.460;2023-03-14T13:12:07;11.50;;;6.20;;
18738;SDS011;9498;51.862;19.460;2023-03-14T13:14:36;11.93;;;6.73;;
18738;SDS011;9498;51.862;19.460;2023-03-14T13:17:04;17.37;;;7.17;;
18738;SDS011;9498;51.862;19.460;2023-03-14T13:19:32;11.00;;;5.97;;
18738;SDS011;9498;51.862;19.460;2023-03-14T13:22:01;13.90;;;7.10;;
18738;SDS011;9498;51.862;19.460;2023-03-14T13:24:29;12.90;;;6.53;;
18738;SDS011;9498;51.862;19.460;2023-03-14T13:26:59;14.40;;;6.80;;
18738;SDS011;9498;51.862;19.460;2023-03-14T13:29:29;14.63;;;7.20;;
18738;SDS011;9498;51.862;19.460;2023-03-14T13:31:58;12.07;;;6.37;;
18738;SDS011;9498;51.862;19.460;2023-03-14T13:34:26;12.23;;;6.63;;
18738;SDS011;9498;51.862;19.460;2023-03-14T13:36:53;16.13;;;6.73;;
18738;SDS011;9498;51.862;19.460;2023-03-14T13:39:21;13.47;;;6.53;;
18738;SDS011;9498;51.862;19.460;2023-03-14T13:41:50;12.80;;;6.70;;
18738;SDS011;9498;51.862;19.460;2023-03-14T13:44:26;13.30;;;6.80;;
18738;SDS011;9498;51.862;19.460;2023-03-14T13:46:58;14.73;;;7.30;;
18738;SDS011;9498;51.862;19.460;2023-03-14T13:49:26;14.93;;;7.37;;
18738;SDS011;9498;51.862;19.460;2023-03-14T13:51:54;13.47;;;6.60;;
18738;SDS011;9498;51.862;19.460;2023-03-14T13:54:21;19.87;;;7.43;;
18738;SDS011;9498;51.862;19.460;2023-03-14T13:56:49;15.67;;;7.20;;
18738;SDS011;9498;51.862;19.460;2023-03-14T13:59:26;14.50;;;7.10;;
18738;SDS011;9498;51.862;19.460;2023-03-14T14:01:54;16.20;;;7.27;;
18738;SDS011;9498;51.862;19.460;2023-03-14T14:04:24;12.37;;;6.63;;
18738;SDS011;9498;51.862;19.460;2023-03-14T14:06:52;17.83;;;6.60;;
18738;SDS011;9498;51.862;19.460;2023-03-14T14:09:21;10.57;;;6.20;;
18738;SDS011;9498;51.862;19.460;2023-03-14T14:11:50;16.73;;;6.43;;
18738;SDS011;9498;51.862;19.460;2023-03-14T14:14:20;13.93;;;6.17;;
18738;SDS011;9498;51.862;19.460;2023-03-14T14:16:48;15.00;;;6.90;;
18738;SDS011;9498;51.862;19.460;2023-03-14T14:19:15;17.07;;;6.50;;
18738;SDS011;9498;51.862;19.460;2023-03-14T14:21:44;13.88;;;6.55;;
18738;SDS011;9498;51.862;19.460;2023-03-14T14:24:12;13.83;;;6.90;;
18738;SDS011;9498;51.862;19.460;2023-03-14T14:26:40;12.00;;;6.00;;
18738;SDS011;9498;51.862;19.460;2023-03-14T14:29:18;11.37;;;6.03;;
18738;SDS011;9498;51.862;19.460;2023-03-14T14:31:46;15.13;;;6.33;;
18738;SDS011;9498;51.862;19.460;2023-03-14T14:34:17;16.27;;;6.60;;
18738;SDS011;9498;51.862;19.460;2023-03-14T14:36:46;13.33;;;6.23;;
18738;SDS011;9498;51.862;19.460;2023-03-14T14:39:15;12.67;;;5.97;;
18738;SDS011;9498;51.862;19.460;2023-03-14T14:41:43;16.03;;;6.70;;
18738;SDS011;9498;51.862;19.460;2023-03-14T14:44:11;11.27;;;6.37;;
18738;SDS011;9498;51.862;19.460;2023-03-14T14:46:38;18.00;;;6.47;;
18738;SDS011;9498;51.862;19.460;2023-03-14T14:49:06;11.67;;;6.10;;
18738;SDS011;9498;51.862;19.460;2023-03-14T14:51:38;14.83;;;6.20;;
18738;SDS011;9498;51.862;19.460;2023-03-14T14:54:12;14.90;;;6.40;;
18738;SDS011;9498;51.862;19.460;2023-03-14T14:56:40;14.43;;;6.43;;
18738;SDS011;9498;51.862;19.460;2023-03-14T14:59:17;13.53;;;6.40;;
18738;SDS011;9498;51.862;19.460;2023-03-14T15:01:45;12.70;;;6.10;;